createdAt,value
2018-08-09T00:03:21.503Z,74.10
2018-08-09T00:08:25.078Z,74.90
2018-08-09T00:13:28.630Z,75.20
2018-08-09T00:18:32.206Z,76.20
2018-08-09T00:23:35.747Z,76.80
2018-08-09T00:28:39.590Z,73.30
2018-08-09T00:33:43.105Z,75.20
2018-08-09T00:38:46.731Z,75.90
2018-08-09T00:43:50.573Z,75.90
2018-08-09T00:48:54.758Z,77.30
2018-08-09T00:53:58.290Z,74.40
2018-08-09T00:59:02.081Z,74.80
2018-08-09T01:04:05.699Z,76.00
2018-08-09T01:09:10.066Z,77.30
2018-08-09T01:14:13.850Z,76.50
2018-08-09T01:19:17.426Z,76.50
2018-08-09T01:24:20.966Z,76.20
2018-08-09T01:29:24.557Z,77.10
2018-08-09T01:34:28.098Z,77.80
2018-08-09T01:39:31.652Z,77.70
2018-08-09T01:44:35.289Z,77.80
2018-08-09T01:49:38.829Z,77.70
2018-08-09T01:54:42.391Z,77.80
2018-08-09T01:59:48.045Z,78.00
2018-08-09T02:04:51.776Z,77.20
2018-08-09T02:10:02.429Z,78.40
2018-08-09T02:15:06.402Z,76.90
2018-08-09T02:20:09.928Z,78.60
2018-08-09T02:25:13.612Z,76.40
2018-08-09T02:30:17.270Z,77.80
2018-08-09T02:35:24.563Z,79.00
2018-08-09T02:40:28.186Z,79.90
2018-08-09T02:45:31.717Z,80.00
2018-08-09T02:50:35.910Z,78.90
2018-08-09T02:55:39.475Z,77.80
2018-08-09T03:00:43.378Z,79.40
2018-08-09T03:05:47.233Z,79.90
2018-08-09T03:10:50.817Z,78.60
2018-08-09T03:15:54.410Z,78.70
2018-08-09T03:20:57.974Z,80.40
2018-08-09T03:26:01.893Z,81.50
2018-08-09T03:31:05.475Z,81.20
2018-08-09T03:36:09.110Z,79.60
2018-08-09T03:41:12.744Z,78.90
2018-08-09T03:46:16.419Z,79.80
2018-08-09T03:51:20.153Z,81.00
2018-08-09T03:56:23.734Z,79.20
2018-08-09T04:01:27.404Z,79.70
2018-08-09T04:06:31.010Z,77.80
2018-08-09T04:11:34.957Z,78.60
2018-08-09T04:16:38.830Z,78.70
2018-08-09T04:21:42.436Z,79.20
2018-08-09T04:26:46.091Z,79.80
2018-08-09T04:31:49.814Z,80.40
2018-08-09T04:36:53.334Z,80.70
2018-08-09T04:41:58.002Z,79.10
2018-08-09T04:47:01.922Z,78.70
2018-08-09T04:52:05.647Z,78.50
2018-08-09T04:57:09.532Z,78.00
2018-08-09T05:02:14.146Z,77.70
2018-08-09T05:07:17.927Z,76.80
2018-08-09T05:12:21.599Z,75.70
2018-08-09T05:17:25.130Z,76.40
2018-08-09T05:22:28.749Z,76.20
2018-08-09T05:27:32.806Z,77.60
2018-08-09T05:32:36.383Z,77.50
2018-08-09T05:37:39.977Z,77.50
2018-08-09T05:42:43.543Z,78.40
2018-08-09T05:47:47.425Z,76.10
2018-08-09T05:52:54.560Z,77.00
2018-08-09T05:57:58.082Z,76.90
2018-08-09T06:03:01.659Z,76.50
2018-08-09T06:08:05.506Z,76.50
2018-08-09T06:13:09.225Z,76.40
2018-08-09T06:18:12.880Z,75.80
2018-08-09T06:23:16.498Z,75.00
2018-08-09T06:28:20.126Z,75.30
2018-08-09T06:33:23.776Z,73.30
2018-08-09T06:38:27.382Z,73.80
2018-08-09T06:43:31.339Z,73.10
2018-08-09T06:48:36.064Z,73.10
2018-08-09T06:53:39.671Z,72.90
2018-08-09T06:58:43.754Z,72.50
2018-08-09T07:03:47.403Z,73.30
2018-08-09T07:08:50.994Z,71.90
2018-08-09T07:13:54.551Z,65.30
2018-08-09T07:18:58.054Z,59.00
2018-08-09T07:24:09.889Z,58.60
2018-08-09T07:29:13.413Z,55.60
2018-08-09T07:34:16.941Z,64.00
2018-08-09T07:39:20.688Z,66.10
2018-08-09T07:44:24.173Z,66.70
2018-08-09T07:49:37.327Z,67.50
2018-08-09T07:54:40.945Z,67.40
2018-08-09T07:59:45.234Z,68.80
2018-08-09T08:04:49.805Z,67.50
2018-08-09T08:09:53.478Z,66.60
2018-08-09T08:14:57.073Z,66.30
2018-08-09T08:20:00.798Z,66.40
2018-08-09T08:25:04.851Z,61.40
2018-08-09T08:35:13.672Z,53.20
2018-08-09T08:40:40.205Z,51.40
2018-08-09T08:45:43.746Z,50.50
2018-08-09T08:50:47.302Z,50.20
2018-08-09T08:55:52.923Z,49.30
2018-08-09T09:00:56.516Z,48.80
2018-08-09T09:06:00.039Z,50.70
2018-08-09T09:11:03.642Z,54.10
2018-08-09T09:16:07.275Z,52.80
2018-08-09T09:21:10.830Z,50.90
2018-08-09T09:26:14.882Z,52.00
2018-08-09T09:31:18.805Z,51.50
2018-08-09T09:36:22.718Z,48.40
2018-08-09T09:41:26.341Z,47.20
2018-08-09T09:46:29.855Z,46.60
2018-08-09T09:51:33.406Z,45.70
2018-08-09T09:56:37.230Z,44.90
2018-08-09T10:01:40.774Z,44.10
2018-08-09T10:06:48.812Z,44.40
2018-08-09T10:11:52.502Z,43.80
2018-08-09T10:16:59.806Z,43.60
2018-08-09T10:22:03.422Z,43.50
2018-08-09T10:27:06.970Z,43.60
2018-08-09T10:32:18.172Z,43.20
2018-08-09T10:37:21.789Z,43.00
2018-08-09T10:42:26.765Z,42.90
2018-08-09T10:47:30.457Z,43.40
2018-08-09T10:52:33.994Z,43.60
2018-08-09T10:57:37.548Z,43.60
2018-08-09T11:02:41.538Z,43.30
2018-08-09T11:07:45.449Z,43.00
2018-08-09T11:12:49.439Z,42.90
2018-08-09T11:17:53.110Z,40.20
2018-08-09T11:22:56.655Z,41.70
2018-08-09T11:28:00.314Z,41.80
2018-08-09T11:33:04.011Z,41.70
2018-08-09T11:38:07.605Z,41.70
2018-08-09T11:43:13.246Z,42.10
2018-08-09T11:48:17.239Z,42.00
2018-08-09T11:53:20.854Z,42.10
2018-08-09T11:58:24.498Z,42.90
2018-08-09T12:03:28.166Z,42.90
2018-08-09T12:08:31.741Z,43.90
2018-08-09T12:13:35.454Z,44.70
2018-08-09T12:18:38.976Z,45.80
2018-08-09T12:23:42.594Z,46.10
2018-08-09T12:28:46.158Z,46.70
2018-08-09T12:33:49.814Z,47.10
2018-08-09T12:38:53.453Z,47.80
2018-08-09T12:43:57.092Z,48.70
2018-08-09T12:49:00.970Z,49.40
2018-08-09T12:54:04.576Z,50.70
2018-08-09T12:59:08.218Z,50.70
2018-08-09T13:04:11.803Z,59.60
2018-08-09T13:09:15.502Z,60.80
2018-08-09T13:14:19.171Z,59.60
2018-08-09T13:19:23.296Z,63.60
2018-08-09T13:24:27.959Z,99.90
2018-08-09T13:29:34.735Z,99.90
2018-08-09T13:34:38.334Z,99.90
2018-08-09T13:39:41.972Z,99.90
2018-08-09T13:44:45.723Z,99.90
2018-08-09T13:49:49.431Z,99.90
2018-08-09T14:20:15.597Z,99.90
2018-08-09T14:25:20.253Z,99.90
2018-08-09T14:30:23.876Z,99.90
2018-08-09T14:35:27.702Z,99.90
2018-08-09T14:40:31.302Z,99.90
2018-08-09T14:45:36.061Z,99.90
2018-08-09T14:50:39.654Z,99.90
2018-08-09T14:55:43.659Z,99.90
2018-08-09T15:00:47.273Z,99.90
2018-08-09T15:05:52.273Z,99.90
2018-08-09T15:10:55.882Z,99.90
2018-08-09T15:15:59.489Z,99.90
2018-08-09T15:21:08.974Z,99.90
2018-08-09T15:26:12.510Z,99.90
2018-08-09T15:31:17.235Z,99.90
2018-08-09T15:36:20.849Z,99.90
2018-08-09T15:41:24.555Z,99.90
2018-08-09T15:46:28.117Z,99.90
2018-08-09T15:51:36.578Z,99.90
2018-08-09T15:56:40.196Z,99.90
2018-08-09T16:01:43.792Z,99.90
2018-08-09T16:06:51.477Z,99.90
2018-08-09T16:11:56.075Z,99.90
2018-08-09T16:16:59.777Z,99.90
2018-08-09T16:22:04.426Z,99.90
2018-08-09T16:27:11.332Z,99.90
2018-08-09T16:32:20.791Z,99.90
2018-08-09T16:37:24.552Z,99.90
2018-08-09T16:42:28.252Z,99.90
2018-08-09T16:47:34.062Z,99.90
2018-08-09T16:52:38.017Z,99.90
2018-08-09T16:57:42.154Z,99.90
2018-08-09T17:02:47.072Z,99.90
2018-08-09T17:07:55.237Z,99.90
2018-08-09T17:12:59.170Z,99.90
2018-08-09T17:18:04.913Z,99.90
2018-08-09T17:23:08.992Z,99.90
2018-08-09T17:28:12.761Z,99.90
2018-08-09T17:33:17.572Z,99.90
2018-08-09T17:38:21.261Z,99.90
2018-08-09T17:43:24.931Z,99.90
2018-08-09T17:48:28.559Z,99.90
2018-08-09T17:53:36.301Z,99.90
2018-08-09T17:58:40.444Z,99.90
2018-08-09T18:03:46.376Z,99.90
2018-08-09T18:08:50.069Z,99.90
2018-08-09T18:13:54.849Z,99.90
2018-08-09T18:18:58.773Z,99.90
2018-08-09T18:24:02.999Z,99.90
2018-08-09T18:29:06.640Z,99.90
2018-08-09T18:34:13.570Z,99.90
2018-08-09T18:39:17.259Z,99.90
2018-08-09T18:44:22.830Z,99.90
2018-08-09T18:49:27.720Z,99.90
2018-08-09T18:54:31.690Z,99.90
2018-08-09T18:59:36.443Z,99.90
2018-08-09T19:04:40.799Z,99.90
2018-08-09T19:09:44.446Z,99.90
2018-08-09T19:14:48.467Z,99.90
2018-08-09T19:19:52.183Z,99.90
2018-08-09T19:24:55.855Z,99.90
2018-08-09T19:29:59.439Z,99.90
2018-08-09T19:35:07.500Z,99.90
2018-08-09T19:40:13.456Z,99.90
2018-08-09T19:45:18.058Z,99.90
2018-08-09T19:50:22.989Z,99.90
2018-08-09T19:55:30.129Z,99.90
2018-08-09T20:00:35.821Z,99.90
2018-08-09T20:05:39.531Z,99.90
2018-08-09T20:10:45.432Z,99.90
2018-08-09T20:15:49.322Z,99.90
2018-08-09T20:20:52.992Z,99.90
2018-08-09T20:25:56.574Z,99.90
2018-08-09T20:31:01.242Z,99.90
2018-08-09T20:36:04.920Z,99.90
2018-08-09T20:41:09.621Z,99.90
2018-08-09T20:46:13.171Z,99.90
2018-08-09T20:51:21.152Z,99.90
2018-08-09T20:56:24.791Z,99.90
2018-08-09T21:01:28.566Z,99.90
2018-08-09T21:06:32.132Z,99.90
2018-08-09T21:11:35.730Z,99.90
2018-08-09T21:16:39.398Z,99.90
2018-08-09T21:21:43.118Z,99.90
2018-08-09T21:26:48.755Z,99.90
2018-08-09T21:31:52.297Z,99.90
2018-08-09T21:36:55.831Z,99.90
2018-08-09T21:41:59.397Z,99.90
2018-08-09T21:47:02.941Z,99.90
2018-08-09T21:52:06.702Z,99.80
2018-08-09T21:57:10.279Z,99.90
2018-08-09T22:02:13.828Z,99.50
2018-08-09T22:07:22.727Z,99.90
2018-08-09T22:12:31.997Z,99.70
2018-08-09T22:17:40.866Z,98.70
2018-08-09T22:22:44.590Z,99.90
2018-08-09T22:27:48.161Z,99.90
2018-08-09T22:32:51.759Z,99.90
2018-08-09T22:37:56.460Z,99.90
2018-08-09T22:43:00.034Z,99.90
2018-08-09T22:48:03.626Z,99.90
2018-08-09T22:53:07.358Z,99.90
2018-08-09T22:58:10.981Z,99.90
2018-08-09T23:03:14.877Z,99.90
2018-08-09T23:08:18.422Z,99.90
2018-08-09T23:13:26.135Z,99.90
2018-08-09T23:18:30.803Z,99.90
2018-08-09T23:23:34.493Z,99.70
2018-08-09T23:28:38.070Z,98.60
2018-08-09T23:33:43.722Z,98.20
2018-08-09T23:38:47.742Z,98.60
2018-08-09T23:43:51.382Z,98.40
2018-08-09T23:48:54.960Z,98.60
2018-08-09T23:53:58.575Z,97.80
2018-08-09T23:59:02.183Z,97.80
